Time;durP1;ratioP1;P1;durP2;ratioP2;P2;SDS_P1;SDS_P2;PMS_P1;PMS_P2;Temp;Humidity;BMP_temperature;BMP_pressure;BME280_temperature;BME280_humidity;BME280_pressure;Samples;Min_cycle;Max_cycle;Signal;HPM_P1;HPM_P2
2023/04/20 00:01:47;;;;;;;7.45;4.63;;;7.10;99.90;;;;;;7364391;19;20026;-66
2023/04/20 00:04:14;;;;;;;9.73;5.57;;;7.10;99.90;;;;;;7360364;19;20047;-64
2023/04/20 00:06:42;;;;;;;7.72;4.28;;;7.20;99.90;;;;;;7365204;19;20018;-64
2023/04/20 00:09:09;;;;;;;7.32;4.68;;;7.20;99.90;;;;;;7366480;19;20014;-63
2023/04/20 00:11:39;;;;;;;7.10;4.00;;;7.20;99.90;;;;;;7368597;19;20026;-64
2023/04/20 00:14:06;;;;;;;7.70;4.10;;;7.20;99.90;;;;;;7365429;19;20050;-64
2023/04/20 00:16:35;;;;;;;7.28;4.40;;;7.20;99.90;;;;;;7371040;19;20018;-64
2023/04/20 00:19:01;;;;;;;7.75;4.20;;;7.20;99.90;;;;;;7369027;19;20478;-65
2023/04/20 00:21:28;;;;;;;7.50;4.07;;;7.20;99.90;;;;;;7372800;19;20025;-66
2023/04/20 00:23:54;;;;;;;6.95;3.83;;;7.10;99.90;;;;;;7362077;19;20102;-66
2023/04/20 00:26:20;;;;;;;5.97;3.28;;;7.20;99.90;;;;;;7375843;19;20029;-66
2023/04/20 00:28:51;;;;;;;4.93;3.53;;;7.30;99.90;;;;;;7368349;19;20061;-66
2023/04/20 00:31:18;;;;;;;6.70;3.53;;;7.40;99.90;;;;;;7374918;19;20095;-66
2023/04/20 00:33:49;;;;;;;6.68;3.47;;;7.40;99.90;;;;;;7377181;19;20022;-66
2023/04/20 00:36:19;;;;;;;8.85;4.00;;;7.40;99.90;;;;;;7376036;19;20018;-64
2023/04/20 00:38:45;;;;;;;7.97;3.55;;;7.60;99.90;;;;;;7373982;19;20025;-64
2023/04/20 00:41:18;;;;;;;6.63;2.90;;;7.60;99.90;;;;;;7376872;19;20014;-64
2023/04/20 00:43:52;;;;;;;7.72;3.47;;;7.80;99.90;;;;;;7371508;19;20030;-64
2023/04/20 00:46:19;;;;;;;6.20;3.28;;;7.90;99.90;;;;;;7374634;19;20034;-64
2023/04/20 00:48:47;;;;;;;5.95;3.65;;;8.10;99.90;;;;;;7370692;19;20082;-64
2023/04/20 00:51:13;;;;;;;4.45;3.13;;;8.10;99.90;;;;;;7375341;19;20018;-65
2023/04/20 00:53:40;;;;;;;5.35;2.95;;;8.30;99.90;;;;;;7373473;19;20018;-66
2023/04/20 00:56:08;;;;;;;9.65;3.97;;;8.30;99.90;;;;;;7369829;19;20059;-64
2023/04/20 00:58:42;;;;;;;6.78;3.42;;;8.40;99.90;;;;;;7361388;19;20014;-64
2023/04/20 01:01:10;;;;;;;5.20;2.92;;;8.40;99.90;;;;;;7371107;19;20068;-65
2023/04/20 01:03:41;;;;;;;4.90;3.20;;;8.50;99.90;;;;;;7371699;19;20014;-66
2023/04/20 01:06:08;;;;;;;5.75;3.20;;;8.50;99.90;;;;;;7370695;19;20028;-66
2023/04/20 01:08:34;;;;;;;7.35;3.40;;;8.60;99.90;;;;;;7372127;19;20033;-66
2023/04/20 01:11:03;;;;;;;6.15;2.80;;;8.60;99.90;;;;;;7367604;19;20023;-64
2023/04/20 01:13:29;;;;;;;8.40;3.45;;;8.60;99.90;;;;;;7373047;19;20595;-66
2023/04/20 01:16:03;;;;;;;8.40;3.17;;;8.60;99.90;;;;;;7369003;19;20577;-66
2023/04/20 01:18:45;;;;;;;6.90;3.78;;;8.60;99.90;;;;;;7372654;19;20018;-66
2023/04/20 01:21:13;;;;;;;4.60;2.63;;;8.70;99.90;;;;;;7365559;19;20021;-64
2023/04/20 01:23:39;;;;;;;4.55;3.28;;;8.70;99.90;;;;;;7369436;19;20096;-66
2023/04/20 01:26:08;;;;;;;6.32;3.63;;;8.80;99.90;;;;;;7367183;19;20029;-67
2023/04/20 01:28:34;;;;;;;5.13;3.70;;;8.80;99.90;;;;;;7368388;19;20649;-66
2023/04/20 01:31:05;;;;;;;7.38;3.33;;;8.80;99.90;;;;;;7365200;19;20053;-64
2023/04/20 01:33:32;;;;;;;5.40;3.03;;;8.80;99.90;;;;;;7372470;19;20051;-64
2023/04/20 01:35:59;;;;;;;6.90;3.00;;;8.80;99.90;;;;;;7368512;19;20046;-66
2023/04/20 01:38:26;;;;;;;6.60;3.10;;;8.90;99.90;;;;;;7366751;19;20779;-66
2023/04/20 01:40:54;;;;;;;7.82;3.60;;;8.90;99.90;;;;;;7364442;19;20025;-64
2023/04/20 01:43:21;;;;;;;8.38;3.63;;;8.90;99.90;;;;;;7363886;19;20628;-65
2023/04/20 01:45:47;;;;;;;5.00;3.20;;;8.90;99.90;;;;;;7367591;19;20481;-67
2023/04/20 01:48:13;;;;;;;6.60;3.00;;;8.90;99.90;;;;;;7369434;19;20019;-66
2023/04/20 01:50:40;;;;;;;9.20;3.47;;;8.90;99.90;;;;;;7371812;19;20029;-66
2023/04/20 01:53:06;;;;;;;5.65;2.78;;;8.90;99.90;;;;;;7368178;19;20018;-66
2023/04/20 01:55:33;;;;;;;7.80;3.30;;;8.90;99.90;;;;;;7372204;19;20019;-66
2023/04/20 01:58:00;;;;;;;7.00;2.78;;;8.90;99.90;;;;;;7358500;19;20728;-66
2023/04/20 02:00:27;;;;;;;5.72;2.72;;;8.90;99.90;;;;;;7357303;19;20038;-64
2023/04/20 02:02:56;;;;;;;6.20;2.83;;;8.90;99.90;;;;;;7347947;19;20025;-64
2023/04/20 02:05:22;;;;;;;5.20;2.60;;;8.80;99.90;;;;;;7368265;19;20023;-64
2023/04/20 02:07:50;;;;;;;4.75;2.40;;;8.70;99.90;;;;;;7366562;19;20052;-66
2023/04/20 02:10:19;;;;;;;5.53;3.15;;;8.70;99.90;;;;;;7370897;19;20017;-66
2023/04/20 02:12:48;;;;;;;5.18;2.65;;;8.70;99.90;;;;;;7370173;19;20022;-65
2023/04/20 02:15:14;;;;;;;5.00;2.47;;;8.70;99.90;;;;;;7365036;19;20019;-68
2023/04/20 02:17:42;;;;;;;5.57;2.55;;;8.60;99.90;;;;;;7369246;19;20018;-66
2023/04/20 02:20:09;;;;;;;7.50;3.00;;;8.60;99.90;;;;;;7368397;19;21184;-65
2023/04/20 02:22:37;;;;;;;7.88;2.90;;;8.60;99.90;;;;;;7365492;19;20609;-66
2023/04/20 02:25:04;;;;;;;7.10;2.80;;;8.50;99.90;;;;;;7369234;19;20025;-65
2023/04/20 02:27:32;;;;;;;6.32;2.83;;;8.50;99.90;;;;;;7369957;19;20018;-66
2023/04/20 02:29:59;;;;;;;6.75;2.67;;;8.50;99.90;;;;;;7369080;19;20018;-65
2023/04/20 02:32:26;;;;;;;4.78;2.80;;;8.40;99.90;;;;;;7370784;19;20022;-65
2023/04/20 02:34:53;;;;;;;6.03;2.60;;;8.40;99.90;;;;;;7353613;19;20490;-65
2023/04/20 02:37:19;;;;;;;6.50;2.78;;;8.30;99.90;;;;;;7357984;19;20059;-64
2023/04/20 02:39:45;;;;;;;4.78;2.85;;;8.20;99.90;;;;;;7350702;19;20018;-63
2023/04/20 02:42:15;;;;;;;3.63;2.50;;;8.20;99.90;;;;;;7361849;19;20026;-64
2023/04/20 02:44:42;;;;;;;4.70;2.60;;;8.10;99.90;;;;;;7363174;19;20089;-64
2023/04/20 02:47:09;;;;;;;4.45;2.38;;;8.10;99.90;;;;;;7364178;19;20025;-64
2023/04/20 02:49:35;;;;;;;5.63;2.83;;;8.10;99.90;;;;;;7368432;19;20033;-64
2023/04/20 02:52:02;;;;;;;10.38;2.60;;;8.10;99.90;;;;;;7363764;19;20018;-64
2023/04/20 02:54:28;;;;;;;5.05;2.45;;;8.00;99.90;;;;;;7367415;19;20015;-64
2023/04/20 02:56:57;;;;;;;9.00;3.92;;;8.00;99.90;;;;;;7363636;19;20025;-64
2023/04/20 02:59:24;;;;;;;6.40;3.00;;;7.90;99.90;;;;;;7369894;19;20604;-64
2023/04/20 03:02:00;;;;;;;6.18;2.65;;;8.00;99.90;;;;;;7365442;19;20022;-65
2023/04/20 03:04:27;;;;;;;5.28;2.50;;;8.00;99.90;;;;;;7369259;19;20018;-65
2023/04/20 03:07:03;;;;;;;6.18;2.92;;;8.00;99.90;;;;;;7367538;19;20817;-65
2023/04/20 03:09:33;;;;;;;8.38;2.83;;;8.10;99.90;;;;;;7367153;19;20030;-65
2023/04/20 03:12:06;;;;;;;6.45;2.58;;;8.20;99.90;;;;;;7367577;19;20530;-65
2023/04/20 03:14:51;;;;;;;7.32;2.78;;;8.20;99.90;;;;;;7363793;19;20478;-65
2023/04/20 03:17:23;;;;;;;6.10;2.90;;;8.30;99.90;;;;;;7367003;19;20031;-65
2023/04/20 03:19:50;;;;;;;8.30;2.50;;;8.30;99.90;;;;;;7367567;19;20022;-66
2023/04/20 03:22:18;;;;;;;6.35;2.38;;;8.30;99.90;;;;;;7367383;19;20059;-66
2023/04/20 03:24:50;;;;;;;6.47;3.00;;;8.40;99.90;;;;;;7366094;19;20015;-65
2023/04/20 03:27:37;;;;;;;4.65;2.55;;;8.50;99.90;;;;;;7362503;19;20123;-66
2023/04/20 03:30:09;;;;;;;6.38;3.08;;;8.50;99.90;;;;;;7363842;19;20034;-66
2023/04/20 03:32:35;;;;;;;8.70;2.90;;;8.50;99.90;;;;;;7362487;19;20035;-66
2023/04/20 03:35:01;;;;;;;6.78;2.45;;;8.50;99.90;;;;;;7356366;19;20026;-66
2023/04/20 03:37:37;;;;;;;5.70;3.03;;;8.60;99.90;;;;;;7356715;19;20018;-66
2023/04/20 03:40:07;;;;;;;7.40;2.75;;;8.60;99.90;;;;;;7364653;19;20512;-65
2023/04/20 03:42:33;;;;;;;5.47;3.13;;;8.60;99.90;;;;;;7361624;19;20015;-66
2023/04/20 03:45:00;;;;;;;7.40;2.67;;;8.60;99.90;;;;;;7363006;19;20018;-66
2023/04/20 03:47:26;;;;;;;7.28;2.80;;;8.60;99.90;;;;;;7363635;19;20498;-66
2023/04/20 03:49:53;;;;;;;5.40;2.60;;;8.60;99.90;;;;;;7362792;19;20481;-66
2023/04/20 03:52:19;;;;;;;6.97;2.70;;;8.70;99.90;;;;;;7365268;19;20022;-64
2023/04/20 03:54:46;;;;;;;4.70;2.50;;;8.70;99.90;;;;;;7363536;19;20022;-64
2023/04/20 03:57:21;;;;;;;4.97;2.35;;;8.70;99.90;;;;;;7360033;19;20052;-64
2023/04/20 03:59:49;;;;;;;4.88;2.60;;;8.70;99.90;;;;;;7363646;19;20018;-64
2023/04/20 04:02:21;;;;;;;4.78;2.60;;;8.70;99.90;;;;;;7374507;19;20026;-64
2023/04/20 04:04:48;;;;;;;5.38;2.80;;;8.60;99.90;;;;;;7371440;19;20135;-64
2023/04/20 04:07:14;;;;;;;6.47;3.08;;;8.70;99.90;;;;;;7371539;19;20033;-64
2023/04/20 04:09:42;;;;;;;6.07;3.10;;;8.60;99.90;;;;;;7370588;19;20029;-65
2023/04/20 04:12:09;;;;;;;6.88;2.63;;;8.50;99.90;;;;;;7373903;19;20018;-64
2023/04/20 04:14:37;;;;;;;8.93;2.80;;;8.50;99.90;;;;;;7371312;19;20023;-64
2023/04/20 04:17:06;;;;;;;6.68;2.70;;;8.40;99.90;;;;;;7373885;19;20046;-65
2023/04/20 04:19:34;;;;;;;8.98;3.20;;;8.30;99.90;;;;;;7370340;19;20685;-64
2023/04/20 04:22:02;;;;;;;5.32;3.17;;;8.20;99.90;;;;;;7372140;19;20945;-64
2023/04/20 04:24:32;;;;;;;7.80;2.83;;;8.10;99.90;;;;;;7367234;19;20019;-64
2023/04/20 04:27:04;;;;;;;6.55;3.20;;;8.10;99.90;;;;;;7369189;19;20023;-65
2023/04/20 04:29:34;;;;;;;5.97;2.90;;;8.00;99.90;;;;;;7365429;19;21758;-65
2023/04/20 04:32:05;;;;;;;6.32;3.08;;;8.00;99.90;;;;;;7371095;19;20014;-64
2023/04/20 04:34:37;;;;;;;5.95;3.65;;;7.90;99.90;;;;;;7364754;19;20038;-65
2023/04/20 04:37:04;;;;;;;5.85;3.47;;;7.80;99.90;;;;;;7369719;19;20032;-64
2023/04/20 04:39:40;;;;;;;7.18;3.40;;;7.80;99.90;;;;;;7368474;19;20101;-65
2023/04/20 04:42:14;;;;;;;7.53;3.20;;;7.70;99.90;;;;;;7373477;19;20428;-65
2023/04/20 04:44:42;;;;;;;6.55;3.30;;;7.60;99.90;;;;;;7372990;19;20526;-65
2023/04/20 04:47:13;;;;;;;6.05;2.90;;;7.50;99.90;;;;;;7371466;19;20022;-65
2023/04/20 04:49:39;;;;;;;6.13;3.00;;;7.50;99.90;;;;;;7368751;19;20049;-65
2023/04/20 04:52:07;;;;;;;7.13;3.17;;;7.50;99.90;;;;;;7372355;19;20026;-65
2023/04/20 04:54:34;;;;;;;4.55;3.28;;;7.50;99.90;;;;;;7373884;19;20022;-65
2023/04/20 04:57:00;;;;;;;6.28;3.15;;;7.50;99.90;;;;;;7367960;19;20388;-65
2023/04/20 04:59:26;;;;;;;6.57;2.92;;;7.40;99.90;;;;;;7366741;19;20022;-65
2023/04/20 05:01:53;;;;;;;6.70;3.13;;;7.40;99.90;;;;;;7368230;19;20018;-64
2023/04/20 05:04:20;;;;;;;6.57;3.00;;;7.40;99.90;;;;;;7372325;19;20785;-65
2023/04/20 05:06:47;;;;;;;6.05;2.90;;;7.40;99.90;;;;;;7367132;19;20972;-65
2023/04/20 05:09:13;;;;;;;5.55;3.22;;;7.40;99.90;;;;;;7367299;19;20037;-66
2023/04/20 05:11:40;;;;;;;6.63;3.22;;;7.40;99.90;;;;;;7363631;19;20058;-65
2023/04/20 05:14:06;;;;;;;6.38;3.15;;;7.50;99.90;;;;;;7368841;19;20042;-67
2023/04/20 05:16:35;;;;;;;5.15;3.15;;;7.50;99.90;;;;;;7366607;19;20050;-67
2023/04/20 05:19:01;;;;;;;5.18;3.50;;;7.50;99.90;;;;;;7372047;19;20120;-67
2023/04/20 05:21:27;;;;;;;6.07;3.75;;;7.50;99.90;;;;;;7367966;19;20014;-65
2023/04/20 05:23:53;;;;;;;7.63;3.00;;;7.50;99.90;;;;;;7367344;19;20023;-65
2023/04/20 05:26:19;;;;;;;5.85;3.28;;;7.50;99.90;;;;;;7370339;19;20480;-65
2023/04/20 05:28:50;;;;;;;5.40;3.17;;;7.50;99.90;;;;;;7369704;19;20665;-65
2023/04/20 05:31:16;;;;;;;5.00;3.00;;;7.50;99.90;;;;;;7366571;19;20379;-66
2023/04/20 05:33:43;;;;;;;10.88;5.57;;;7.50;99.90;;;;;;7364388;19;20805;-65
2023/04/20 05:36:09;;;;;;;7.82;4.28;;;7.60;99.90;;;;;;7370903;19;20023;-65
2023/04/20 05:38:35;;;;;;;11.15;6.65;;;7.50;99.90;;;;;;7372585;19;20026;-65
2023/04/20 05:41:03;;;;;;;14.00;6.88;;;7.60;99.90;;;;;;7370748;19;20026;-65
2023/04/20 05:43:30;;;;;;;8.55;4.25;;;7.60;99.90;;;;;;7366084;19;20419;-65
2023/04/20 05:45:56;;;;;;;18.13;11.23;;;7.50;99.90;;;;;;7370936;19;20014;-65
2023/04/20 05:48:22;;;;;;;9.10;6.25;;;7.50;99.90;;;;;;7367536;19;20019;-65
2023/04/20 05:50:48;;;;;;;15.38;7.70;;;7.50;99.90;;;;;;7369063;19;20035;-65
2023/04/20 05:53:14;;;;;;;10.90;5.15;;;7.50;99.90;;;;;;7366710;19;20058;-67
2023/04/20 05:55:40;;;;;;;11.75;5.22;;;7.50;99.90;;;;;;7367374;19;21839;-67
2023/04/20 05:58:07;;;;;;;5.15;3.22;;;7.50;99.90;;;;;;7365794;19;20026;-65
2023/04/20 06:00:33;;;;;;;8.52;4.05;;;7.50;99.90;;;;;;7368930;19;20018;-65
2023/04/20 06:03:00;;;;;;;7.68;5.38;;;7.50;99.90;;;;;;7369522;19;20370;-65
2023/04/20 06:05:26;;;;;;;5.88;3.28;;;7.50;99.90;;;;;;7372341;19;20494;-65
2023/04/20 06:07:55;;;;;;;7.18;3.80;;;7.40;99.90;;;;;;7369189;19;20022;-65
2023/04/20 06:10:21;;;;;;;21.33;11.82;;;7.40;99.90;;;;;;7372183;19;20533;-65
2023/04/20 06:12:47;;;;;;;11.70;7.65;;;7.40;99.90;;;;;;7371416;19;20029;-65
2023/04/20 06:15:17;;;;;;;12.43;7.75;;;7.40;99.90;;;;;;7369522;19;20021;-65
2023/04/20 06:17:44;;;;;;;10.63;5.10;;;7.30;99.90;;;;;;7372238;19;20010;-65
2023/04/20 06:20:10;;;;;;;7.63;3.53;;;7.20;99.90;;;;;;7372333;19;20013;-65
2023/04/20 06:22:43;;;;;;;11.77;8.27;;;7.20;99.90;;;;;;7370296;19;20029;-65
2023/04/20 06:25:09;;;;;;;11.43;6.90;;;7.10;99.90;;;;;;7369299;19;20018;-65
2023/04/20 06:27:35;;;;;;;9.20;4.53;;;7.00;99.90;;;;;;7368428;19;20028;-65
2023/04/20 06:30:02;;;;;;;8.27;3.83;;;6.80;99.90;;;;;;7365508;19;20737;-66
2023/04/20 06:32:30;;;;;;;11.05;6.10;;;6.70;99.90;;;;;;7366829;19;21138;-66
2023/04/20 06:34:56;;;;;;;7.75;4.85;;;6.60;99.90;;;;;;7359210;19;20049;-66
2023/04/20 06:37:23;;;;;;;8.18;5.38;;;6.50;99.90;;;;;;7369452;19;20040;-65
2023/04/20 06:39:54;;;;;;;4.97;4.13;;;6.40;99.90;;;;;;7366542;19;20039;-65
2023/04/20 06:42:22;;;;;;;8.07;4.45;;;6.30;99.90;;;;;;7365260;19;20022;-67
2023/04/20 06:44:49;;;;;;;6.10;4.38;;;6.20;99.90;;;;;;7370715;19;20505;-64
2023/04/20 06:47:15;;;;;;;7.88;4.32;;;6.10;99.90;;;;;;7367536;19;20038;-64
2023/04/20 06:49:48;;;;;;;12.38;5.18;;;6.10;99.90;;;;;;7365219;19;20018;-64
2023/04/20 06:52:14;;;;;;;9.50;5.60;;;6.10;99.90;;;;;;7362852;19;20705;-67
2023/04/20 06:54:40;;;;;;;8.43;5.65;;;6.00;99.90;;;;;;7370276;19;20504;-68
2023/04/20 06:57:06;;;;;;;9.10;6.47;;;6.00;99.90;;;;;;7362923;19;20209;-69
2023/04/20 06:59:33;;;;;;;7.43;5.07;;;6.00;99.90;;;;;;7369086;19;20028;-69
2023/04/20 07:02:00;;;;;;;13.75;7.07;;;6.00;99.90;;;;;;7360576;19;20575;-65
2023/04/20 07:04:26;;;;;;;7.72;4.43;;;6.10;99.90;;;;;;7363784;19;20761;-70
2023/04/20 07:06:53;;;;;;;14.57;10.15;;;6.00;99.90;;;;;;7365532;19;20026;-68
2023/04/20 07:09:19;;;;;;;12.02;7.90;;;6.10;99.90;;;;;;7360964;19;20030;-69
2023/04/20 07:11:45;;;;;;;11.27;4.65;;;6.10;99.90;;;;;;7368879;19;20779;-65
2023/04/20 07:14:14;;;;;;;13.82;8.57;;;6.10;99.90;;;;;;7367197;19;20026;-65
2023/04/20 07:16:41;;;;;;;12.27;6.20;;;6.10;99.90;;;;;;7369568;19;20043;-70
2023/04/20 07:19:07;;;;;;;14.50;8.55;;;6.10;99.90;;;;;;7364222;19;20027;-70
2023/04/20 07:21:34;;;;;;;14.50;9.85;;;6.20;99.90;;;;;;7369976;19;20015;-69
2023/04/20 07:24:01;;;;;;;13.25;6.97;;;6.20;99.90;;;;;;7367292;19;20019;-65
2023/04/20 07:26:27;;;;;;;8.88;5.50;;;6.30;99.90;;;;;;7370450;19;20018;-65
2023/04/20 07:28:53;;;;;;;9.05;6.35;;;6.40;99.90;;;;;;7364915;19;20785;-67
2023/04/20 07:31:20;;;;;;;19.08;13.13;;;6.50;99.90;;;;;;7367695;19;20010;-65
2023/04/20 07:33:46;;;;;;;8.68;6.00;;;6.50;99.90;;;;;;7365717;19;20054;-67
2023/04/20 07:36:13;;;;;;;9.98;6.78;;;6.50;99.90;;;;;;7365236;19;21224;-67
2023/04/20 07:38:41;;;;;;;10.88;7.22;;;6.60;99.90;;;;;;7373934;19;20033;-67
2023/04/20 07:41:10;;;;;;;10.23;7.18;;;6.70;99.90;;;;;;7373784;19;20014;-68
2023/04/20 07:43:38;;;;;;;10.75;6.68;;;6.70;99.90;;;;;;7368730;19;21091;-68
2023/04/20 07:46:04;;;;;;;7.85;6.70;;;6.80;99.90;;;;;;7372442;19;20838;-67
2023/04/20 07:48:32;;;;;;;9.82;6.57;;;6.90;99.90;;;;;;7372421;19;20395;-67
2023/04/20 07:50:58;;;;;;;10.80;6.53;;;7.00;99.90;;;;;;7377087;19;20018;-69
2023/04/20 07:53:28;;;;;;;12.40;7.60;;;7.00;99.90;;;;;;7373501;19;20057;-67
2023/04/20 07:55:56;;;;;;;14.35;8.50;;;7.10;99.90;;;;;;7374355;19;20047;-67
2023/04/20 07:58:22;;;;;;;15.48;10.02;;;7.10;99.90;;;;;;7374578;19;20019;-67
2023/04/20 08:00:49;;;;;;;11.00;6.35;;;7.20;99.90;;;;;;7370337;19;20051;-67
2023/04/20 08:03:15;;;;;;;12.35;8.70;;;7.20;99.90;;;;;;7372239;19;20496;-67
2023/04/20 08:05:43;;;;;;;8.52;5.70;;;7.40;99.90;;;;;;7368839;19;20023;-67
2023/04/20 08:08:09;;;;;;;13.55;7.93;;;7.80;99.90;;;;;;7368231;19;20021;-67
2023/04/20 08:10:36;;;;;;;13.20;8.93;;;8.20;99.90;;;;;;7372964;19;20050;-67
2023/04/20 08:13:02;;;;;;;12.75;8.57;;;8.50;99.90;;;;;;7367809;19;20484;-67
2023/04/20 08:15:28;;;;;;;16.92;11.65;;;8.80;99.90;;;;;;7373006;19;20011;-67
2023/04/20 08:17:55;;;;;;;12.52;8.52;;;8.80;99.90;;;;;;7360048;19;20034;-66
2023/04/20 08:20:21;;;;;;;9.40;5.63;;;8.80;99.90;;;;;;7343133;19;20735;-66
2023/04/20 08:22:48;;;;;;;11.13;7.43;;;8.70;99.90;;;;;;7368903;19;20648;-66
2023/04/20 08:25:14;;;;;;;12.38;7.55;;;8.50;99.90;;;;;;7372200;19;20164;-66
2023/04/20 08:27:41;;;;;;;12.10;7.60;;;8.50;99.90;;;;;;7368052;19;20014;-66
2023/04/20 08:30:08;;;;;;;9.13;6.45;;;8.40;99.90;;;;;;7370465;19;20015;-66
2023/04/20 08:32:34;;;;;;;10.93;6.90;;;8.40;99.90;;;;;;7368310;19;20057;-66
2023/04/20 08:35:00;;;;;;;13.52;7.00;;;8.30;99.90;;;;;;7370194;19;20015;-67
2023/04/20 08:37:27;;;;;;;13.10;7.63;;;8.30;99.90;;;;;;7374509;19;20481;-67
2023/04/20 08:39:53;;;;;;;11.20;6.30;;;8.10;99.90;;;;;;7370081;19;20136;-67
2023/04/20 08:42:19;;;;;;;10.57;6.55;;;8.10;99.90;;;;;;7368208;19;21274;-67
2023/04/20 08:44:46;;;;;;;10.07;6.53;;;8.00;99.90;;;;;;7367329;19;20020;-67
2023/04/20 08:47:13;;;;;;;8.85;7.30;;;8.00;99.90;;;;;;7365975;19;20018;-67
2023/04/20 08:49:49;;;;;;;12.32;8.93;;;8.00;99.90;;;;;;7362288;19;20896;-67
2023/04/20 08:52:15;;;;;;;12.45;7.93;;;8.10;99.90;;;;;;7357806;19;20029;-67
2023/04/20 08:54:42;;;;;;;14.43;9.77;;;8.20;99.90;;;;;;7363208;19;20038;-67
2023/04/20 08:57:08;;;;;;;10.05;6.80;;;8.20;99.90;;;;;;7369115;19;20021;-67
2023/04/20 08:59:36;;;;;;;11.82;7.35;;;8.20;99.90;;;;;;7370691;19;20849;-67
2023/04/20 09:02:13;;;;;;;12.75;8.27;;;8.20;99.90;;;;;;7369141;19;20022;-67
2023/04/20 09:04:39;;;;;;;13.60;6.95;;;8.10;99.90;;;;;;7371958;19;20026;-67
2023/04/20 09:07:19;;;;;;;13.45;9.30;;;8.10;99.90;;;;;;7370578;19;20018;-67
2023/04/20 09:09:59;;;;;;;13.45;7.95;;;8.20;99.90;;;;;;7374260;19;20021;-67
2023/04/20 09:12:27;;;;;;;12.57;7.18;;;8.20;99.90;;;;;;7371334;19;20110;-67
2023/04/20 09:14:53;;;;;;;19.30;14.60;;;8.20;99.90;;;;;;7369426;19;20014;-67
2023/04/20 09:17:33;;;;;;;17.52;10.48;;;8.20;99.90;;;;;;7372115;19;20046;-68
2023/04/20 09:20:00;;;;;;;9.05;6.90;;;8.20;99.90;;;;;;7366423;19;20022;-68
2023/04/20 09:22:34;;;;;;;11.30;8.18;;;8.30;99.90;;;;;;7369034;19;20010;-67
2023/04/20 09:25:15;;;;;;;16.45;12.05;;;8.30;99.90;;;;;;7371198;19;20074;-67
2023/04/20 09:27:41;;;;;;;17.25;10.60;;;8.30;99.90;;;;;;7366427;19;20520;-68
2023/04/20 09:30:08;;;;;;;19.10;13.75;;;8.50;99.90;;;;;;7371128;19;20029;-66
2023/04/20 09:32:35;;;;;;;10.20;7.68;;;8.70;99.90;;;;;;7374146;19;20030;-67
2023/04/20 09:35:01;;;;;;;12.50;7.95;;;8.80;99.90;;;;;;7372759;19;20035;-69
2023/04/20 09:37:27;;;;;;;12.63;10.75;;;8.90;99.90;;;;;;7373028;19;20593;-67
2023/04/20 09:39:58;;;;;;;13.32;9.43;;;9.10;99.90;;;;;;7373664;19;20546;-67
2023/04/20 09:42:27;;;;;;;26.52;17.25;;;9.20;99.90;;;;;;7369799;19;20049;-69
2023/04/20 09:44:54;;;;;;;12.38;9.38;;;9.20;99.90;;;;;;7368941;19;20104;-68
2023/04/20 09:47:21;;;;;;;15.65;10.25;;;9.20;99.90;;;;;;7369348;19;20011;-69
2023/04/20 09:49:49;;;;;;;11.43;8.25;;;9.20;99.90;;;;;;7370971;19;20022;-68
2023/04/20 09:52:18;;;;;;;12.85;10.30;;;9.30;99.90;;;;;;7373085;19;20573;-67
2023/04/20 09:54:45;;;;;;;24.67;16.60;;;9.40;99.90;;;;;;7371853;19;20111;-68
2023/04/20 09:57:13;;;;;;;10.52;6.75;;;9.50;99.90;;;;;;7368457;19;20609;-68
2023/04/20 09:59:42;;;;;;;16.65;12.52;;;9.60;99.90;;;;;;7365550;19;21328;-68
2023/04/20 10:02:11;;;;;;;11.27;6.72;;;9.70;99.90;;;;;;7367316;19;20031;-66
2023/04/20 10:04:37;;;;;;;17.55;14.20;;;9.80;99.90;;;;;;7370233;19;20035;-67
2023/04/20 10:07:05;;;;;;;19.90;13.38;;;10.10;99.90;;;;;;7371662;19;20046;-67
2023/04/20 10:09:33;;;;;;;8.57;6.38;;;9.90;99.90;;;;;;7371836;19;20363;-67
2023/04/20 10:12:07;;;;;;;24.85;18.80;;;9.80;99.90;;;;;;7369219;19;20399;-67
2023/04/20 10:14:34;;;;;;;16.30;12.50;;;9.80;99.90;;;;;;7369168;19;20030;-67
2023/04/20 10:17:08;;;;;;;17.23;12.88;;;9.70;99.90;;;;;;7370528;19;20063;-68
2023/04/20 10:19:42;;;;;;;14.88;12.82;;;9.80;99.90;;;;;;7368758;19;20018;-68
2023/04/20 10:22:10;;;;;;;15.27;11.15;;;10.00;99.90;;;;;;7367879;19;20357;-68
2023/04/20 10:24:37;;;;;;;13.05;10.38;;;10.40;99.90;;;;;;7370288;19;20281;-68
2023/04/20 10:27:17;;;;;;;20.80;16.23;;;10.80;99.90;;;;;;7368254;19;20019;-68
2023/04/20 10:29:43;;;;;;;17.50;14.20;;;11.50;99.90;;;;;;7367847;19;20589;-68
2023/04/20 10:32:21;;;;;;;11.00;9.65;;;12.60;99.90;;;;;;7369379;19;20089;-67
2023/04/20 10:34:48;;;;;;;21.73;18.85;;;13.00;99.90;;;;;;7370401;19;20108;-68
2023/04/20 10:37:14;;;;;;;13.93;10.43;;;13.30;99.90;;;;;;7369704;19;20049;-66
2023/04/20 10:39:45;;;;;;;11.82;9.93;;;13.00;99.90;;;;;;7368878;19;20026;-66
2023/04/20 10:42:12;;;;;;;12.68;10.38;;;12.40;99.90;;;;;;7366972;19;20806;-66
2023/04/20 10:44:52;;;;;;;13.82;10.20;;;11.70;99.90;;;;;;7371288;19;20043;-67
2023/04/20 10:47:30;;;;;;;8.85;7.95;;;11.10;99.90;;;;;;7371855;19;20027;-67
2023/04/20 10:50:28;;;;;;;12.77;9.13;;;10.70;99.90;;;;;;7369094;19;20019;-66
2023/04/20 10:52:58;;;;;;;13.95;9.75;;;10.50;99.90;;;;;;7370042;19;20035;-67
2023/04/20 10:55:25;;;;;;;11.75;9.05;;;10.40;99.90;;;;;;7370993;19;20052;-67
2023/04/20 10:57:52;;;;;;;11.48;8.60;;;10.50;99.90;;;;;;7367889;19;20022;-67
2023/04/20 11:00:20;;;;;;;14.23;10.55;;;11.20;99.90;;;;;;7371928;19;20018;-67
2023/04/20 11:02:47;;;;;;;12.57;11.07;;;11.80;99.90;;;;;;7371069;19;20442;-67
2023/04/20 11:05:14;;;;;;;12.75;11.23;;;12.20;99.90;;;;;;7369055;19;20052;-67
2023/04/20 11:07:53;;;;;;;10.98;9.45;;;12.90;99.90;;;;;;7367798;19;20092;-67
2023/04/20 11:10:22;;;;;;;10.98;9.30;;;13.50;99.90;;;;;;7366096;19;20029;-65
2023/04/20 11:12:49;;;;;;;12.65;10.57;;;13.70;99.90;;;;;;7364369;19;20018;-64
2023/04/20 11:15:16;;;;;;;13.52;11.93;;;13.80;99.90;;;;;;7359278;19;20068;-64
2023/04/20 11:17:43;;;;;;;12.27;8.93;;;14.20;99.90;;;;;;7369295;19;20025;-64
2023/04/20 11:20:15;;;;;;;13.48;11.82;;;13.80;99.90;;;;;;7367362;19;20022;-66
2023/04/20 11:22:43;;;;;;;14.38;12.90;;;14.10;99.90;;;;;;7369826;19;20018;-66
2023/04/20 11:25:11;;;;;;;12.30;9.55;;;14.70;99.90;;;;;;7364316;19;20026;-66
2023/04/20 11:27:38;;;;;;;13.65;10.32;;;13.90;99.90;;;;;;7365776;19;20487;-66
2023/04/20 11:30:06;;;;;;;9.75;8.68;;;13.60;99.90;;;;;;7362452;19;20018;-65
2023/04/20 11:32:35;;;;;;;10.20;9.18;;;13.40;99.90;;;;;;7361076;19;20018;-66
2023/04/20 11:35:07;;;;;;;11.85;9.15;;;13.00;99.90;;;;;;7365595;19;20054;-65
2023/04/20 11:37:52;;;;;;;12.35;11.10;;;13.20;99.90;;;;;;7370431;19;20105;-65
2023/04/20 11:40:18;;;;;;;10.43;9.27;;;13.50;99.90;;;;;;7367049;19;20014;-65
2023/04/20 11:42:45;;;;;;;12.27;10.90;;;13.50;99.90;;;;;;7366080;19;20703;-64
2023/04/20 11:45:11;;;;;;;12.75;10.88;;;13.50;99.90;;;;;;7367065;19;20007;-62
2023/04/20 11:47:40;;;;;;;14.00;12.32;;;14.10;99.90;;;;;;7362169;19;20443;-64
2023/04/20 11:50:07;;;;;;;10.80;9.30;;;15.00;99.90;;;;;;7364135;19;20590;-65
2023/04/20 11:52:34;;;;;;;13.27;11.65;;;14.40;99.90;;;;;;7364141;19;20618;-64
2023/04/20 11:55:00;;;;;;;13.95;12.18;;;14.70;99.90;;;;;;7367130;19;20462;-64
2023/04/20 11:57:26;;;;;;;13.38;10.88;;;14.40;99.90;;;;;;7367067;19;20014;-64
2023/04/20 11:59:52;;;;;;;14.60;13.10;;;14.60;99.90;;;;;;7364592;19;20025;-64
2023/04/20 12:02:19;;;;;;;14.68;10.38;;;14.90;99.90;;;;;;7369224;19;20046;-64
2023/04/20 12:04:45;;;;;;;12.85;10.80;;;15.00;99.90;;;;;;7363898;19;20015;-64
2023/04/20 12:07:11;;;;;;;11.60;9.73;;;14.80;99.90;;;;;;7366018;19;20022;-65
2023/04/20 12:09:37;;;;;;;13.05;11.15;;;14.80;99.90;;;;;;7361094;19;20078;-65
2023/04/20 12:12:06;;;;;;;14.68;13.18;;;14.70;99.90;;;;;;7367873;19;20032;-66
2023/04/20 12:14:32;;;;;;;10.57;8.73;;;14.70;99.90;;;;;;7368223;19;20022;-65
2023/04/20 12:16:59;;;;;;;10.25;7.47;;;14.70;98.30;;;;;;7365426;19;20033;-65
2023/04/20 12:19:26;;;;;;;9.60;8.60;;;15.10;96.40;;;;;;7358045;19;20011;-64
2023/04/20 12:21:52;;;;;;;18.33;16.10;;;15.50;99.50;;;;;;7367390;19;20015;-64
2023/04/20 12:24:19;;;;;;;14.75;11.82;;;15.40;99.90;;;;;;7374776;19;20015;-65
2023/04/20 12:26:45;;;;;;;10.75;9.15;;;15.50;99.90;;;;;;7367948;19;20022;-66
2023/04/20 12:29:15;;;;;;;12.82;10.88;;;14.70;99.90;;;;;;7368199;19;20018;-64
2023/04/20 12:31:41;;;;;;;18.77;14.20;;;14.10;99.90;;;;;;7369361;19;20061;-64
2023/04/20 12:34:08;;;;;;;10.73;9.63;;;13.50;99.90;;;;;;7366060;19;20071;-65
2023/04/20 12:36:35;;;;;;;10.77;8.48;;;13.60;99.90;;;;;;7365213;19;20505;-65
2023/04/20 12:39:02;;;;;;;10.48;8.98;;;14.00;99.90;;;;;;7374544;19;20664;-64
2023/04/20 12:41:29;;;;;;;12.25;10.18;;;13.80;99.90;;;;;;7370263;19;20128;-64
2023/04/20 12:43:55;;;;;;;10.90;9.77;;;14.30;99.90;;;;;;7372584;19;20029;-64
2023/04/20 12:46:21;;;;;;;14.38;12.93;;;14.10;99.90;;;;;;7369209;19;20028;-64
2023/04/20 12:48:47;;;;;;;12.60;10.52;;;13.90;99.90;;;;;;7370310;19;20023;-64
2023/04/20 12:51:14;;;;;;;12.50;9.48;;;13.40;99.90;;;;;;7369303;19;20039;-65
2023/04/20 12:53:40;;;;;;;13.48;11.68;;;13.10;99.90;;;;;;7370272;19;20011;-65